sensor_id;sensor_type;location;lat;lon;timestamp;P1;durP1;ratioP1;P2;durP2;ratioP2
36383;SDS011;22418;51.210;6.976;2022-12-29T00:01:31;2.77;;;1.50;;
36383;SDS011;22418;51.210;6.976;2022-12-29T00:04:02;3.83;;;1.42;;
36383;SDS011;22418;51.210;6.976;2022-12-29T00:09:04;3.83;;;1.52;;
36383;SDS011;22418;51.210;6.976;2022-12-29T00:11:34;4.17;;;1.67;;
36383;SDS011;22418;51.210;6.976;2022-12-29T00:14:05;2.03;;;1.40;;
36383;SDS011;22418;51.210;6.976;2022-12-29T00:16:54;2.72;;;1.50;;
36383;SDS011;22418;51.210;6.976;2022-12-29T00:19:25;2.20;;;1.60;;
36383;SDS011;22418;51.210;6.976;2022-12-29T00:22:14;4.43;;;1.45;;
36383;SDS011;22418;51.210;6.976;2022-12-29T00:25:04;1.55;;;1.25;;
36383;SDS011;22418;51.210;6.976;2022-12-29T00:27:54;3.97;;;1.30;;
36383;SDS011;22418;51.210;6.976;2022-12-29T00:30:43;2.22;;;1.55;;
36383;SDS011;22418;51.210;6.976;2022-12-29T00:33:32;4.18;;;1.30;;
36383;SDS011;22418;51.210;6.976;2022-12-29T00:39:03;2.53;;;1.25;;
36383;SDS011;22418;51.210;6.976;2022-12-29T00:41:56;1.95;;;0.93;;
36383;SDS011;22418;51.210;6.976;2022-12-29T00:44:51;2.22;;;0.95;;
36383;SDS011;22418;51.210;6.976;2022-12-29T00:47:21;1.33;;;1.00;;
36383;SDS011;22418;51.210;6.976;2022-12-29T00:49:52;1.90;;;0.73;;
36383;SDS011;22418;51.210;6.976;2022-12-29T00:52:22;2.07;;;1.10;;
36383;SDS011;22418;51.210;6.976;2022-12-29T00:54:53;2.50;;;1.00;;
36383;SDS011;22418;51.210;6.976;2022-12-29T00:57:23;2.40;;;0.80;;
36383;SDS011;22418;51.210;6.976;2022-12-29T00:59:54;1.40;;;0.80;;
36383;SDS011;22418;51.210;6.976;2022-12-29T01:02:24;5.30;;;0.90;;
36383;SDS011;22418;51.210;6.976;2022-12-29T01:04:55;3.00;;;0.87;;
36383;SDS011;22418;51.210;6.976;2022-12-29T01:07:26;2.87;;;0.90;;
36383;SDS011;22418;51.210;6.976;2022-12-29T01:09:56;2.70;;;0.80;;
36383;SDS011;22418;51.210;6.976;2022-12-29T01:12:42;1.30;;;0.60;;
36383;SDS011;22418;51.210;6.976;2022-12-29T01:15:14;1.60;;;1.05;;
36383;SDS011;22418;51.210;6.976;2022-12-29T01:17:45;1.48;;;0.80;;
36383;SDS011;22418;51.210;6.976;2022-12-29T01:20:16;2.00;;;0.80;;
36383;SDS011;22418;51.210;6.976;2022-12-29T01:22:46;0.70;;;0.43;;
36383;SDS011;22418;51.210;6.976;2022-12-29T01:25:17;2.00;;;0.80;;
36383;SDS011;22418;51.210;6.976;2022-12-29T01:27:48;1.17;;;0.80;;
36383;SDS011;22418;51.210;6.976;2022-12-29T01:30:18;2.40;;;0.80;;
36383;SDS011;22418;51.210;6.976;2022-12-29T01:32:49;1.77;;;0.53;;
36383;SDS011;22418;51.210;6.976;2022-12-29T01:35:19;0.93;;;0.70;;
36383;SDS011;22418;51.210;6.976;2022-12-29T01:37:50;2.63;;;0.80;;
36383;SDS011;22418;51.210;6.976;2022-12-29T01:40:20;1.60;;;0.60;;
36383;SDS011;22418;51.210;6.976;2022-12-29T01:42:51;1.10;;;0.43;;
36383;SDS011;22418;51.210;6.976;2022-12-29T01:45:21;2.60;;;0.80;;
36383;SDS011;22418;51.210;6.976;2022-12-29T01:47:53;1.27;;;0.50;;
36383;SDS011;22418;51.210;6.976;2022-12-29T01:50:32;3.22;;;0.57;;
36383;SDS011;22418;51.210;6.976;2022-12-29T01:53:11;1.70;;;0.45;;
36383;SDS011;22418;51.210;6.976;2022-12-29T01:55:53;1.02;;;0.40;;
36383;SDS011;22418;51.210;6.976;2022-12-29T01:58:27;1.10;;;0.50;;
36383;SDS011;22418;51.210;6.976;2022-12-29T02:01:02;1.50;;;0.40;;
36383;SDS011;22418;51.210;6.976;2022-12-29T02:03:34;0.88;;;0.43;;
36383;SDS011;22418;51.210;6.976;2022-12-29T02:06:11;1.17;;;0.40;;
36383;SDS011;22418;51.210;6.976;2022-12-29T02:08:53;0.65;;;0.40;;
36383;SDS011;22418;51.210;6.976;2022-12-29T02:11:25;1.95;;;0.40;;
36383;SDS011;22418;51.210;6.976;2022-12-29T02:13:58;0.77;;;0.43;;
36383;SDS011;22418;51.210;6.976;2022-12-29T02:16:31;1.65;;;0.40;;
36383;SDS011;22418;51.210;6.976;2022-12-29T02:30:35;1.80;;;0.38;;
36383;SDS011;22418;51.210;6.976;2022-12-29T02:33:32;0.88;;;0.50;;
36383;SDS011;22418;51.210;6.976;2022-12-29T02:42:16;0.95;;;0.40;;
36383;SDS011;22418;51.210;6.976;2022-12-29T02:45:02;3.45;;;0.80;;
36383;SDS011;22418;51.210;6.976;2022-12-29T02:47:45;1.70;;;0.80;;
36383;SDS011;22418;51.210;6.976;2022-12-29T02:50:23;2.10;;;0.57;;
36383;SDS011;22418;51.210;6.976;2022-12-29T02:53:02;3.22;;;0.63;;
36383;SDS011;22418;51.210;6.976;2022-12-29T02:55:36;2.00;;;0.57;;
36383;SDS011;22418;51.210;6.976;2022-12-29T02:58:18;2.47;;;0.60;;
36383;SDS011;22418;51.210;6.976;2022-12-29T03:06:56;2.95;;;0.77;;
36383;SDS011;22418;51.210;6.976;2022-12-29T03:09:57;1.05;;;0.65;;
36383;SDS011;22418;51.210;6.976;2022-12-29T03:16:05;5.95;;;0.80;;
36383;SDS011;22418;51.210;6.976;2022-12-29T03:18:46;3.90;;;0.70;;
36383;SDS011;22418;51.210;6.976;2022-12-29T03:21:22;5.35;;;0.90;;
36383;SDS011;22418;51.210;6.976;2022-12-29T03:24:22;2.60;;;0.70;;
36383;SDS011;22418;51.210;6.976;2022-12-29T03:26:56;3.00;;;0.75;;
36383;SDS011;22418;51.210;6.976;2022-12-29T03:29:29;2.90;;;0.88;;
36383;SDS011;22418;51.210;6.976;2022-12-29T03:32:03;0.90;;;0.70;;
36383;SDS011;22418;51.210;6.976;2022-12-29T03:34:34;2.08;;;0.65;;
36383;SDS011;22418;51.210;6.976;2022-12-29T03:37:11;2.42;;;0.70;;
36383;SDS011;22418;51.210;6.976;2022-12-29T03:39:44;2.80;;;0.80;;
36383;SDS011;22418;51.210;6.976;2022-12-29T03:42:22;1.20;;;0.60;;
36383;SDS011;22418;51.210;6.976;2022-12-29T03:44:56;2.05;;;0.60;;
36383;SDS011;22418;51.210;6.976;2022-12-29T03:47:27;4.63;;;0.90;;
36383;SDS011;22418;51.210;6.976;2022-12-29T03:49:57;1.60;;;0.70;;
36383;SDS011;22418;51.210;6.976;2022-12-29T03:52:28;1.73;;;0.52;;
36383;SDS011;22418;51.210;6.976;2022-12-29T03:54:59;4.73;;;0.83;;
36383;SDS011;22418;51.210;6.976;2022-12-29T03:57:29;4.10;;;0.63;;
36383;SDS011;22418;51.210;6.976;2022-12-29T04:00:00;2.30;;;0.40;;
36383;SDS011;22418;51.210;6.976;2022-12-29T04:02:31;1.17;;;0.60;;
36383;SDS011;22418;51.210;6.976;2022-12-29T04:05:02;0.83;;;0.43;;
36383;SDS011;22418;51.210;6.976;2022-12-29T04:07:32;2.10;;;0.60;;
36383;SDS011;22418;51.210;6.976;2022-12-29T04:10:03;1.30;;;0.57;;
36383;SDS011;22418;51.210;6.976;2022-12-29T04:12:34;0.50;;;0.47;;
36383;SDS011;22418;51.210;6.976;2022-12-29T04:15:04;1.17;;;0.40;;
36383;SDS011;22418;51.210;6.976;2022-12-29T04:17:35;2.95;;;0.40;;
36383;SDS011;22418;51.210;6.976;2022-12-29T04:20:06;1.90;;;0.60;;
36383;SDS011;22418;51.210;6.976;2022-12-29T04:22:59;0.93;;;0.32;;
36383;SDS011;22418;51.210;6.976;2022-12-29T04:25:31;1.55;;;0.40;;
36383;SDS011;22418;51.210;6.976;2022-12-29T04:28:02;1.90;;;0.90;;
36383;SDS011;22418;51.210;6.976;2022-12-29T04:30:33;0.87;;;0.70;;
36383;SDS011;22418;51.210;6.976;2022-12-29T04:33:03;0.87;;;0.50;;
36383;SDS011;22418;51.210;6.976;2022-12-29T04:35:34;1.63;;;0.60;;
36383;SDS011;22418;51.210;6.976;2022-12-29T04:38:05;0.93;;;0.35;;
36383;SDS011;22418;51.210;6.976;2022-12-29T04:40:37;0.93;;;0.50;;
36383;SDS011;22418;51.210;6.976;2022-12-29T04:43:08;2.28;;;0.70;;
36383;SDS011;22418;51.210;6.976;2022-12-29T04:45:43;4.93;;;0.57;;
36383;SDS011;22418;51.210;6.976;2022-12-29T04:48:15;1.35;;;0.52;;
36383;SDS011;22418;51.210;6.976;2022-12-29T04:50:47;0.50;;;0.40;;
36383;SDS011;22418;51.210;6.976;2022-12-29T04:53:18;1.02;;;0.47;;
36383;SDS011;22418;51.210;6.976;2022-12-29T04:55:49;0.50;;;0.30;;
36383;SDS011;22418;51.210;6.976;2022-12-29T04:58:21;0.68;;;0.40;;
36383;SDS011;22418;51.210;6.976;2022-12-29T05:00:52;7.18;;;0.50;;
36383;SDS011;22418;51.210;6.976;2022-12-29T05:03:22;1.00;;;0.40;;
36383;SDS011;22418;51.210;6.976;2022-12-29T05:05:54;0.77;;;0.50;;
36383;SDS011;22418;51.210;6.976;2022-12-29T05:08:25;3.50;;;0.77;;
36383;SDS011;22418;51.210;6.976;2022-12-29T05:10:56;5.70;;;0.87;;
36383;SDS011;22418;51.210;6.976;2022-12-29T05:13:26;2.33;;;0.53;;
36383;SDS011;22418;51.210;6.976;2022-12-29T05:15:57;2.23;;;0.70;;
36383;SDS011;22418;51.210;6.976;2022-12-29T05:18:27;2.37;;;0.70;;
36383;SDS011;22418;51.210;6.976;2022-12-29T05:20:58;3.80;;;0.73;;
36383;SDS011;22418;51.210;6.976;2022-12-29T05:23:28;4.87;;;1.47;;
36383;SDS011;22418;51.210;6.976;2022-12-29T05:25:59;4.03;;;0.60;;
36383;SDS011;22418;51.210;6.976;2022-12-29T05:28:29;3.43;;;0.77;;
36383;SDS011;22418;51.210;6.976;2022-12-29T05:31:00;5.57;;;0.97;;
36383;SDS011;22418;51.210;6.976;2022-12-29T05:33:31;2.13;;;0.70;;
36383;SDS011;22418;51.210;6.976;2022-12-29T05:36:05;1.80;;;1.00;;
36383;SDS011;22418;51.210;6.976;2022-12-29T05:38:39;1.20;;;0.60;;
36383;SDS011;22418;51.210;6.976;2022-12-29T05:41:10;2.70;;;0.90;;
36383;SDS011;22418;51.210;6.976;2022-12-29T05:43:40;6.80;;;0.73;;
36383;SDS011;22418;51.210;6.976;2022-12-29T05:46:11;1.47;;;0.50;;
36383;SDS011;22418;51.210;6.976;2022-12-29T05:48:41;0.80;;;0.40;;
36383;SDS011;22418;51.210;6.976;2022-12-29T05:51:12;5.93;;;0.83;;
36383;SDS011;22418;51.210;6.976;2022-12-29T05:53:42;2.60;;;0.73;;
36383;SDS011;22418;51.210;6.976;2022-12-29T05:56:13;3.17;;;0.80;;
36383;SDS011;22418;51.210;6.976;2022-12-29T05:58:44;1.53;;;0.70;;
36383;SDS011;22418;51.210;6.976;2022-12-29T06:01:14;2.87;;;0.77;;
36383;SDS011;22418;51.210;6.976;2022-12-29T06:03:45;1.70;;;0.60;;
36383;SDS011;22418;51.210;6.976;2022-12-29T06:06:15;5.00;;;0.80;;
36383;SDS011;22418;51.210;6.976;2022-12-29T06:08:46;2.43;;;0.80;;
36383;SDS011;22418;51.210;6.976;2022-12-29T06:11:16;2.33;;;0.60;;
36383;SDS011;22418;51.210;6.976;2022-12-29T06:13:47;2.37;;;0.63;;
36383;SDS011;22418;51.210;6.976;2022-12-29T06:16:17;3.20;;;0.80;;
36383;SDS011;22418;51.210;6.976;2022-12-29T06:18:48;5.20;;;1.60;;
36383;SDS011;22418;51.210;6.976;2022-12-29T06:21:18;1.20;;;0.53;;
36383;SDS011;22418;51.210;6.976;2022-12-29T06:23:49;1.37;;;0.57;;
36383;SDS011;22418;51.210;6.976;2022-12-29T06:26:20;3.20;;;0.87;;
36383;SDS011;22418;51.210;6.976;2022-12-29T06:28:50;5.43;;;0.87;;
36383;SDS011;22418;51.210;6.976;2022-12-29T06:31:21;2.47;;;1.10;;
36383;SDS011;22418;51.210;6.976;2022-12-29T06:33:51;4.47;;;0.60;;
36383;SDS011;22418;51.210;6.976;2022-12-29T06:36:22;6.40;;;0.90;;
36383;SDS011;22418;51.210;6.976;2022-12-29T06:38:53;4.77;;;0.80;;
36383;SDS011;22418;51.210;6.976;2022-12-29T06:41:24;3.45;;;0.77;;
36383;SDS011;22418;51.210;6.976;2022-12-29T06:43:54;3.33;;;1.00;;
36383;SDS011;22418;51.210;6.976;2022-12-29T06:46:25;2.30;;;0.60;;
36383;SDS011;22418;51.210;6.976;2022-12-29T06:48:55;3.73;;;0.83;;
36383;SDS011;22418;51.210;6.976;2022-12-29T06:51:26;8.73;;;0.77;;
36383;SDS011;22418;51.210;6.976;2022-12-29T06:53:57;2.73;;;0.90;;
36383;SDS011;22418;51.210;6.976;2022-12-29T06:56:27;4.80;;;0.90;;
36383;SDS011;22418;51.210;6.976;2022-12-29T06:58:58;2.67;;;0.70;;
36383;SDS011;22418;51.210;6.976;2022-12-29T07:01:31;4.80;;;1.00;;
36383;SDS011;22418;51.210;6.976;2022-12-29T07:04:02;4.77;;;1.00;;
36383;SDS011;22418;51.210;6.976;2022-12-29T07:06:33;6.53;;;1.33;;
36383;SDS011;22418;51.210;6.976;2022-12-29T07:09:04;6.70;;;0.90;;
36383;SDS011;22418;51.210;6.976;2022-12-29T07:11:34;5.13;;;1.10;;
36383;SDS011;22418;51.210;6.976;2022-12-29T07:14:06;3.00;;;1.00;;
36383;SDS011;22418;51.210;6.976;2022-12-29T07:16:36;4.70;;;1.00;;
36383;SDS011;22418;51.210;6.976;2022-12-29T07:19:07;2.47;;;0.60;;
36383;SDS011;22418;51.210;6.976;2022-12-29T07:21:38;2.97;;;0.70;;
36383;SDS011;22418;51.210;6.976;2022-12-29T07:24:08;8.57;;;1.30;;
36383;SDS011;22418;51.210;6.976;2022-12-29T07:26:39;4.77;;;1.30;;
36383;SDS011;22418;51.210;6.976;2022-12-29T07:31:41;4.40;;;1.37;;
36383;SDS011;22418;51.210;6.976;2022-12-29T07:34:12;4.10;;;0.93;;
36383;SDS011;22418;51.210;6.976;2022-12-29T07:36:42;5.73;;;0.93;;
36383;SDS011;22418;51.210;6.976;2022-12-29T07:39:13;4.70;;;1.80;;
36383;SDS011;22418;51.210;6.976;2022-12-29T07:41:43;4.40;;;0.60;;
36383;SDS011;22418;51.210;6.976;2022-12-29T07:44:14;7.57;;;1.27;;
36383;SDS011;22418;51.210;6.976;2022-12-29T07:46:44;5.90;;;0.97;;
36383;SDS011;22418;51.210;6.976;2022-12-29T07:49:15;6.37;;;1.13;;
36383;SDS011;22418;51.210;6.976;2022-12-29T07:51:45;4.93;;;1.30;;
36383;SDS011;22418;51.210;6.976;2022-12-29T07:54:16;7.77;;;1.40;;
36383;SDS011;22418;51.210;6.976;2022-12-29T07:59:18;4.25;;;1.20;;
36383;SDS011;22418;51.210;6.976;2022-12-29T08:01:49;5.37;;;1.53;;
36383;SDS011;22418;51.210;6.976;2022-12-29T08:04:19;9.03;;;1.53;;
36383;SDS011;22418;51.210;6.976;2022-12-29T08:06:50;6.80;;;1.40;;
36383;SDS011;22418;51.210;6.976;2022-12-29T08:09:20;5.20;;;1.40;;
36383;SDS011;22418;51.210;6.976;2022-12-29T08:11:51;10.00;;;1.43;;
36383;SDS011;22418;51.210;6.976;2022-12-29T08:14:21;8.03;;;1.43;;
36383;SDS011;22418;51.210;6.976;2022-12-29T08:16:52;12.50;;;1.50;;
36383;SDS011;22418;51.210;6.976;2022-12-29T08:19:22;4.87;;;2.17;;
36383;SDS011;22418;51.210;6.976;2022-12-29T08:21:53;9.30;;;1.77;;
36383;SDS011;22418;51.210;6.976;2022-12-29T08:24:24;11.23;;;1.33;;
36383;SDS011;22418;51.210;6.976;2022-12-29T08:26:55;5.97;;;1.80;;
36383;SDS011;22418;51.210;6.976;2022-12-29T08:29:25;7.85;;;1.55;;
36383;SDS011;22418;51.210;6.976;2022-12-29T08:31:56;8.43;;;1.50;;
36383;SDS011;22418;51.210;6.976;2022-12-29T08:34:27;9.07;;;2.30;;
36383;SDS011;22418;51.210;6.976;2022-12-29T08:36:57;4.80;;;1.03;;
36383;SDS011;22418;51.210;6.976;2022-12-29T08:39:28;9.40;;;1.43;;
36383;SDS011;22418;51.210;6.976;2022-12-29T08:41:59;7.10;;;1.60;;
36383;SDS011;22418;51.210;6.976;2022-12-29T08:44:29;3.73;;;1.53;;
36383;SDS011;22418;51.210;6.976;2022-12-29T08:47:00;5.50;;;1.93;;
36383;SDS011;22418;51.210;6.976;2022-12-29T08:49:30;4.23;;;1.20;;
36383;SDS011;22418;51.210;6.976;2022-12-29T08:52:01;8.63;;;1.17;;
36383;SDS011;22418;51.210;6.976;2022-12-29T08:54:32;4.57;;;0.97;;
36383;SDS011;22418;51.210;6.976;2022-12-29T08:57:03;6.67;;;1.93;;
36383;SDS011;22418;51.210;6.976;2022-12-29T08:59:33;11.33;;;1.43;;
36383;SDS011;22418;51.210;6.976;2022-12-29T09:02:04;7.53;;;1.53;;
36383;SDS011;22418;51.210;6.976;2022-12-29T09:04:34;5.80;;;1.60;;
36383;SDS011;22418;51.210;6.976;2022-12-29T09:07:05;10.27;;;1.70;;
36383;SDS011;22418;51.210;6.976;2022-12-29T09:09:35;9.07;;;2.20;;
36383;SDS011;22418;51.210;6.976;2022-12-29T09:12:06;9.83;;;1.67;;
36383;SDS011;22418;51.210;6.976;2022-12-29T09:14:36;9.33;;;2.30;;
36383;SDS011;22418;51.210;6.976;2022-12-29T09:17:07;6.63;;;1.43;;
36383;SDS011;22418;51.210;6.976;2022-12-29T09:19:57;6.18;;;1.52;;
36383;SDS011;22418;51.210;6.976;2022-12-29T09:22:27;13.30;;;1.60;;
36383;SDS011;22418;51.210;6.976;2022-12-29T09:24:58;9.00;;;1.70;;
36383;SDS011;22418;51.210;6.976;2022-12-29T09:27:28;9.05;;;1.70;;
36383;SDS011;22418;51.210;6.976;2022-12-29T09:30:00;7.35;;;1.90;;
36383;SDS011;22418;51.210;6.976;2022-12-29T09:32:30;8.27;;;1.70;;
36383;SDS011;22418;51.210;6.976;2022-12-29T09:35:01;10.67;;;2.03;;
36383;SDS011;22418;51.210;6.976;2022-12-29T09:37:32;11.53;;;1.60;;
36383;SDS011;22418;51.210;6.976;2022-12-29T09:40:03;11.63;;;1.73;;
36383;SDS011;22418;51.210;6.976;2022-12-29T09:42:37;6.18;;;1.63;;
36383;SDS011;22418;51.210;6.976;2022-12-29T09:45:15;6.03;;;1.27;;
36383;SDS011;22418;51.210;6.976;2022-12-29T09:47:50;8.25;;;1.52;;
36383;SDS011;22418;51.210;6.976;2022-12-29T09:50:25;9.90;;;1.83;;
36383;SDS011;22418;51.210;6.976;2022-12-29T09:53:01;9.13;;;1.60;;
36383;SDS011;22418;51.210;6.976;2022-12-29T09:55:38;17.17;;;2.30;;
36383;SDS011;22418;51.210;6.976;2022-12-29T10:01:05;9.97;;;1.70;;
36383;SDS011;22418;51.210;6.976;2022-12-29T10:03:47;13.55;;;2.53;;
36383;SDS011;22418;51.210;6.976;2022-12-29T10:12:02;8.95;;;1.33;;
36383;SDS011;22418;51.210;6.976;2022-12-29T10:23:26;9.15;;;2.05;;
36383;SDS011;22418;51.210;6.976;2022-12-29T10:26:03;11.80;;;2.13;;
36383;SDS011;22418;51.210;6.976;2022-12-29T10:28:49;10.57;;;1.70;;
36383;SDS011;22418;51.210;6.976;2022-12-29T10:31:23;6.50;;;1.55;;
36383;SDS011;22418;51.210;6.976;2022-12-29T10:33:57;13.52;;;1.50;;
36383;SDS011;22418;51.210;6.976;2022-12-29T10:36:33;12.27;;;2.08;;
36383;SDS011;22418;51.210;6.976;2022-12-29T10:39:15;11.55;;;1.90;;
36383;SDS011;22418;51.210;6.976;2022-12-29T10:44:39;11.52;;;1.85;;
36383;SDS011;22418;51.210;6.976;2022-12-29T10:47:18;7.40;;;2.10;;
36383;SDS011;22418;51.210;6.976;2022-12-29T10:49:52;8.07;;;1.63;;
36383;SDS011;22418;51.210;6.976;2022-12-29T10:52:23;10.15;;;2.22;;
36383;SDS011;22418;51.210;6.976;2022-12-29T10:54:58;11.73;;;1.70;;
36383;SDS011;22418;51.210;6.976;2022-12-29T10:57:32;9.60;;;1.65;;
36383;SDS011;22418;51.210;6.976;2022-12-29T11:05:57;12.23;;;2.17;;
36383;SDS011;22418;51.210;6.976;2022-12-29T11:08:38;9.40;;;1.90;;
36383;SDS011;22418;51.210;6.976;2022-12-29T11:11:14;9.63;;;1.85;;
36383;SDS011;22418;51.210;6.976;2022-12-29T11:16:56;10.70;;;1.88;;
36383;SDS011;22418;51.210;6.976;2022-12-29T11:19:31;15.23;;;2.20;;
36383;SDS011;22418;51.210;6.976;2022-12-29T11:22:13;11.30;;;2.10;;
36383;SDS011;22418;51.210;6.976;2022-12-29T11:24:52;11.02;;;2.08;;
36383;SDS011;22418;51.210;6.976;2022-12-29T11:27:34;13.07;;;1.70;;
36383;SDS011;22418;51.210;6.976;2022-12-29T11:30:11;7.47;;;1.97;;
36383;SDS011;22418;51.210;6.976;2022-12-29T11:32:53;6.95;;;1.73;;
36383;SDS011;22418;51.210;6.976;2022-12-29T11:35:33;9.90;;;1.38;;
36383;SDS011;22418;51.210;6.976;2022-12-29T11:38:18;8.88;;;1.70;;
36383;SDS011;22418;51.210;6.976;2022-12-29T11:40:55;12.43;;;1.70;;
36383;SDS011;22418;51.210;6.976;2022-12-29T11:46:03;5.07;;;1.45;;
36383;SDS011;22418;51.210;6.976;2022-12-29T11:48:38;14.10;;;2.08;;
36383;SDS011;22418;51.210;6.976;2022-12-29T11:51:10;9.05;;;1.80;;
36383;SDS011;22418;51.210;6.976;2022-12-29T11:53:43;11.02;;;2.53;;
36383;SDS011;22418;51.210;6.976;2022-12-29T11:56:17;13.75;;;2.00;;
36383;SDS011;22418;51.210;6.976;2022-12-29T11:58:52;9.25;;;2.38;;
36383;SDS011;22418;51.210;6.976;2022-12-29T12:01:33;12.77;;;2.27;;
36383;SDS011;22418;51.210;6.976;2022-12-29T12:04:15;10.18;;;1.83;;
36383;SDS011;22418;51.210;6.976;2022-12-29T12:09:41;7.65;;;1.83;;
36383;SDS011;22418;51.210;6.976;2022-12-29T12:12:35;7.68;;;1.83;;
36383;SDS011;22418;51.210;6.976;2022-12-29T12:15:17;10.57;;;1.50;;
36383;SDS011;22418;51.210;6.976;2022-12-29T12:21:08;11.15;;;1.60;;
36383;SDS011;22418;51.210;6.976;2022-12-29T12:27:47;14.68;;;1.85;;
36383;SDS011;22418;51.210;6.976;2022-12-29T12:30:16;11.43;;;1.92;;
36383;SDS011;22418;51.210;6.976;2022-12-29T12:32:54;8.95;;;1.83;;
36383;SDS011;22418;51.210;6.976;2022-12-29T12:40:57;9.05;;;1.63;;
36383;SDS011;22418;51.210;6.976;2022-12-29T12:46:30;11.98;;;1.85;;
36383;SDS011;22418;51.210;6.976;2022-12-29T12:52:09;12.07;;;1.73;;
36383;SDS011;22418;51.210;6.976;2022-12-29T12:57:40;10.98;;;1.63;;
36383;SDS011;22418;51.210;6.976;2022-12-29T13:00:19;9.70;;;1.55;;
36383;SDS011;22418;51.210;6.976;2022-12-29T13:03:10;12.98;;;2.28;;
36383;SDS011;22418;51.210;6.976;2022-12-29T13:06:18;12.10;;;1.60;;
36383;SDS011;22418;51.210;6.976;2022-12-29T13:11:47;11.75;;;2.25;;
36383;SDS011;22418;51.210;6.976;2022-12-29T13:17:16;8.35;;;1.85;;
36383;SDS011;22418;51.210;6.976;2022-12-29T13:23:32;9.57;;;2.08;;
36383;SDS011;22418;51.210;6.976;2022-12-29T13:25:50;6.95;;;1.55;;
36383;SDS011;22418;51.210;6.976;2022-12-29T13:28:31;8.52;;;1.48;;
36383;SDS011;22418;51.210;6.976;2022-12-29T13:31:18;10.35;;;2.13;;
36383;SDS011;22418;51.210;6.976;2022-12-29T13:34:02;11.73;;;1.92;;
36383;SDS011;22418;51.210;6.976;2022-12-29T13:39:32;9.60;;;2.10;;
36383;SDS011;22418;51.210;6.976;2022-12-29T13:42:07;12.13;;;1.75;;
36383;SDS011;22418;51.210;6.976;2022-12-29T13:47:21;13.07;;;2.03;;
36383;SDS011;22418;51.210;6.976;2022-12-29T13:49:57;8.40;;;1.85;;
36383;SDS011;22418;51.210;6.976;2022-12-29T13:52:37;10.38;;;2.10;;
36383;SDS011;22418;51.210;6.976;2022-12-29T13:55:26;7.07;;;1.58;;
36383;SDS011;22418;51.210;6.976;2022-12-29T13:58:25;9.70;;;1.77;;
36383;SDS011;22418;51.210;6.976;2022-12-29T14:03:50;9.50;;;1.80;;
36383;SDS011;22418;51.210;6.976;2022-12-29T14:08:55;6.38;;;1.35;;
36383;SDS011;22418;51.210;6.976;2022-12-29T14:11:34;7.80;;;1.73;;
36383;SDS011;22418;51.210;6.976;2022-12-29T14:14:14;3.90;;;1.00;;
36383;SDS011;22418;51.210;6.976;2022-12-29T14:16:51;7.72;;;1.40;;
36383;SDS011;22418;51.210;6.976;2022-12-29T14:22:00;6.38;;;1.38;;
36383;SDS011;22418;51.210;6.976;2022-12-29T14:34:56;8.75;;;1.60;;
36383;SDS011;22418;51.210;6.976;2022-12-29T14:37:32;6.13;;;1.20;;
36383;SDS011;22418;51.210;6.976;2022-12-29T14:42:44;9.70;;;1.50;;
36383;SDS011;22418;51.210;6.976;2022-12-29T14:47:50;5.53;;;1.50;;
36383;SDS011;22418;51.210;6.976;2022-12-29T14:50:23;6.45;;;1.25;;
36383;SDS011;22418;51.210;6.976;2022-12-29T14:53:03;9.13;;;1.40;;
36383;SDS011;22418;51.210;6.976;2022-12-29T14:55:46;11.40;;;1.63;;
36383;SDS011;22418;51.210;6.976;2022-12-29T14:58:44;5.68;;;1.23;;
36383;SDS011;22418;51.210;6.976;2022-12-29T15:04:19;6.47;;;1.48;;
36383;SDS011;22418;51.210;6.976;2022-12-29T15:06:52;8.20;;;2.10;;
36383;SDS011;22418;51.210;6.976;2022-12-29T15:09:32;11.93;;;1.75;;
36383;SDS011;22418;51.210;6.976;2022-12-29T15:14:51;8.63;;;1.60;;
36383;SDS011;22418;51.210;6.976;2022-12-29T15:17:27;11.27;;;2.15;;
36383;SDS011;22418;51.210;6.976;2022-12-29T15:20:14;8.15;;;1.95;;
36383;SDS011;22418;51.210;6.976;2022-12-29T15:23:02;7.47;;;1.25;;
36383;SDS011;22418;51.210;6.976;2022-12-29T15:25:46;6.93;;;2.05;;
36383;SDS011;22418;51.210;6.976;2022-12-29T15:28:25;13.02;;;4.28;;
36383;SDS011;22418;51.210;6.976;2022-12-29T15:31:05;5.13;;;2.00;;
36383;SDS011;22418;51.210;6.976;2022-12-29T15:33:41;8.82;;;1.92;;
36383;SDS011;22418;51.210;6.976;2022-12-29T15:36:22;8.13;;;2.33;;
36383;SDS011;22418;51.210;6.976;2022-12-29T15:38:54;13.65;;;3.97;;
36383;SDS011;22418;51.210;6.976;2022-12-29T15:41:43;15.57;;;4.43;;
36383;SDS011;22418;51.210;6.976;2022-12-29T15:44:30;8.70;;;2.13;;
36383;SDS011;22418;51.210;6.976;2022-12-29T15:47:18;5.57;;;1.30;;
36383;SDS011;22418;51.210;6.976;2022-12-29T15:50:05;12.75;;;2.15;;
36383;SDS011;22418;51.210;6.976;2022-12-29T15:52:43;8.75;;;2.17;;
36383;SDS011;22418;51.210;6.976;2022-12-29T15:55:20;7.93;;;1.93;;
36383;SDS011;22418;51.210;6.976;2022-12-29T15:58:21;11.90;;;2.42;;
36383;SDS011;22418;51.210;6.976;2022-12-29T16:00:58;9.43;;;1.92;;
36383;SDS011;22418;51.210;6.976;2022-12-29T16:03:33;8.13;;;1.70;;
36383;SDS011;22418;51.210;6.976;2022-12-29T16:06:10;9.05;;;1.60;;
36383;SDS011;22418;51.210;6.976;2022-12-29T16:11:40;10.70;;;1.70;;
36383;SDS011;22418;51.210;6.976;2022-12-29T16:14:16;8.35;;;1.85;;
36383;SDS011;22418;51.210;6.976;2022-12-29T16:16:49;11.75;;;2.67;;
36383;SDS011;22418;51.210;6.976;2022-12-29T16:19:22;12.23;;;2.40;;
36383;SDS011;22418;51.210;6.976;2022-12-29T16:21:55;18.70;;;2.83;;
36383;SDS011;22418;51.210;6.976;2022-12-29T16:24:28;11.70;;;2.65;;
36383;SDS011;22418;51.210;6.976;2022-12-29T16:29:35;12.30;;;2.22;;
36383;SDS011;22418;51.210;6.976;2022-12-29T16:38:07;16.42;;;2.72;;
36383;SDS011;22418;51.210;6.976;2022-12-29T16:40:53;11.52;;;2.33;;
36383;SDS011;22418;51.210;6.976;2022-12-29T16:46:20;16.88;;;2.35;;
36383;SDS011;22418;51.210;6.976;2022-12-29T16:48:56;13.05;;;2.20;;
36383;SDS011;22418;51.210;6.976;2022-12-29T16:51:31;14.15;;;2.42;;
36383;SDS011;22418;51.210;6.976;2022-12-29T16:54:05;10.07;;;2.38;;
36383;SDS011;22418;51.210;6.976;2022-12-29T16:56:37;14.00;;;2.35;;
36383;SDS011;22418;51.210;6.976;2022-12-29T16:59:33;19.52;;;4.20;;
36383;SDS011;22418;51.210;6.976;2022-12-29T17:02:16;15.20;;;2.60;;
36383;SDS011;22418;51.210;6.976;2022-12-29T17:04:50;8.43;;;2.33;;
36383;SDS011;22418;51.210;6.976;2022-12-29T17:07:24;17.23;;;3.30;;
36383;SDS011;22418;51.210;6.976;2022-12-29T17:09:56;20.35;;;2.83;;
36383;SDS011;22418;51.210;6.976;2022-12-29T17:12:27;13.57;;;2.93;;
36383;SDS011;22418;51.210;6.976;2022-12-29T17:15:00;15.85;;;3.00;;
36383;SDS011;22418;51.210;6.976;2022-12-29T17:17:44;14.73;;;2.92;;
36383;SDS011;22418;51.210;6.976;2022-12-29T17:20:20;13.50;;;2.20;;
36383;SDS011;22418;51.210;6.976;2022-12-29T17:22:53;13.35;;;4.07;;
36383;SDS011;22418;51.210;6.976;2022-12-29T17:25:34;19.10;;;3.28;;
36383;SDS011;22418;51.210;6.976;2022-12-29T17:28:17;16.52;;;2.35;;
36383;SDS011;22418;51.210;6.976;2022-12-29T17:30:55;11.73;;;2.20;;
36383;SDS011;22418;51.210;6.976;2022-12-29T17:33:30;14.43;;;2.90;;
36383;SDS011;22418;51.210;6.976;2022-12-29T17:36:05;12.88;;;2.33;;
36383;SDS011;22418;51.210;6.976;2022-12-29T17:38:36;14.10;;;2.88;;
36383;SDS011;22418;51.210;6.976;2022-12-29T17:41:11;12.55;;;2.78;;
36383;SDS011;22418;51.210;6.976;2022-12-29T17:43:43;14.18;;;2.78;;
36383;SDS011;22418;51.210;6.976;2022-12-29T17:46:14;20.40;;;3.40;;
36383;SDS011;22418;51.210;6.976;2022-12-29T17:48:45;13.23;;;2.60;;
36383;SDS011;22418;51.210;6.976;2022-12-29T17:51:15;13.60;;;2.77;;
36383;SDS011;22418;51.210;6.976;2022-12-29T17:53:47;16.63;;;2.75;;
36383;SDS011;22418;51.210;6.976;2022-12-29T17:56:19;15.95;;;3.47;;
36383;SDS011;22418;51.210;6.976;2022-12-29T17:58:49;14.53;;;2.60;;
36383;SDS011;22418;51.210;6.976;2022-12-29T18:01:20;17.50;;;3.23;;